Tebessa, Algeria
Current Conditions -  °F | °C
As of 5:00 PM on Saturday 25 Oct 2014 (Local Time) from DABS Reporting Station
Few Clouds Few Clouds  
Wind Chill: 70°   Ceiling: Unl
Heat Index: 70°   Visibility: 6mi
Dew Point: 48°   Wind: 12mph
Humidity: 46%   Direction: 340°NNW
Pressure: 30.12"   Gusts: NA
Location:  35.48°N, 8.13°E
Report Text: DABS 251600Z 34010KT 9999 FEW040 21/09 Q1020
Loading
Personal Weather Stations






























Interactive Weather Map
Tropical Storm Tracking
New forecast layout! Learn more

10-Day Weather Forecast

Advertisements
Track Severe Weather on mobile